createdAt,value
2023-02-12T00:02:02.846Z,97168.47
2023-02-12T00:04:32.735Z,97169.16
2023-02-12T00:07:05.444Z,97165.22
2023-02-12T00:09:35.281Z,97161.94
2023-02-12T00:12:05.327Z,97163.13
2023-02-12T00:14:35.650Z,97173.63
2023-02-12T00:17:05.967Z,97180.31
2023-02-12T00:19:35.895Z,97175.91
2023-02-12T00:22:08.664Z,97167.31
2023-02-12T00:24:38.727Z,97177.91
2023-02-12T00:27:08.638Z,97182.63
2023-02-12T00:29:40.245Z,97166.72
2023-02-12T00:32:10.575Z,97164.13
2023-02-12T00:34:40.461Z,97175.97
2023-02-12T00:37:13.513Z,97183.53
2023-02-12T00:39:43.992Z,97184.22
2023-02-12T00:42:14.513Z,97175.59
2023-02-12T00:44:44.588Z,97175.47
2023-02-12T00:47:14.630Z,97168.97
2023-02-12T00:49:45.189Z,97163.34
2023-02-12T00:52:18.450Z,97165.94
2023-02-12T00:54:48.414Z,97161.69
2023-02-12T00:57:18.522Z,97159.09
2023-02-12T00:59:48.406Z,97168.81
2023-02-12T01:02:20.751Z,97166.63
2023-02-12T01:04:50.697Z,97168.53
2023-02-12T01:07:23.181Z,97171.94
2023-02-12T01:09:53.039Z,97168.38
2023-02-12T01:12:23.133Z,97164.22
2023-02-12T01:14:53.142Z,97167.38
2023-02-12T01:17:23.054Z,97156.06
2023-02-12T01:19:53.367Z,97158.53
2023-02-12T01:22:28.094Z,97163.47
2023-02-12T01:24:57.935Z,97159.94
2023-02-12T01:27:28.207Z,97156.13
2023-02-12T01:29:59.652Z,97159.56
2023-02-12T01:32:30.489Z,97168.06
2023-02-12T01:35:00.355Z,97173.41
2023-02-12T01:37:33.136Z,97172.44
2023-02-12T01:40:02.952Z,97180.22
2023-02-12T01:42:33.349Z,97177.25
2023-02-12T01:45:48.293Z,97183.63
2023-02-12T01:48:21.226Z,97181.63
2023-02-12T01:50:53.988Z,97180.22
2023-02-12T01:53:32.747Z,97177.56
2023-02-12T01:56:05.678Z,97172.84
2023-02-12T01:58:41.125Z,97177.63
2023-02-12T02:01:20.954Z,97174.66
2023-02-12T02:03:55.264Z,97174.78
2023-02-12T02:06:30.826Z,97178.84
2023-02-12T02:09:06.873Z,97164.97
2023-02-12T02:11:49.255Z,97175.03
2023-02-12T02:14:35.424Z,97171.06
2023-02-12T02:17:21.454Z,97165.47
2023-02-12T02:20:42.879Z,97172.19
2023-02-12T02:23:39.630Z,97159.47
2023-02-12T02:26:48.213Z,97154.88
2023-02-12T02:29:45.602Z,97161.69
2023-02-12T02:32:25.569Z,97161.94
2023-02-12T02:35:06.647Z,97160.31
2023-02-12T02:37:47.589Z,97164.94
2023-02-12T02:40:22.218Z,97157.16
2023-02-12T02:42:59.941Z,97152.94
2023-02-12T02:45:38.353Z,97148.28
2023-02-12T02:48:19.848Z,97152.84
2023-02-12T02:50:55.603Z,97145.38
2023-02-12T02:53:34.227Z,97146.19
2023-02-12T02:56:10.078Z,97142.78
2023-02-12T02:58:46.159Z,97143.72
2023-02-12T03:01:21.907Z,97143.19
2023-02-12T03:04:02.864Z,97145.06
2023-02-12T03:06:40.659Z,97146.16
2023-02-12T03:09:18.659Z,97152.00
2023-02-12T03:11:50.892Z,97152.28
2023-02-12T03:14:29.753Z,97152.78
2023-02-12T03:17:05.010Z,97150.88
2023-02-12T03:19:44.137Z,97151.47
2023-02-12T03:22:18.987Z,97155.13
2023-02-12T03:24:56.289Z,97161.84
2023-02-12T03:27:34.430Z,97159.09
2023-02-12T03:30:05.884Z,97166.75
2023-02-12T03:32:49.605Z,97166.06
2023-02-12T03:35:27.144Z,97165.66
2023-02-12T03:38:06.678Z,97168.38
2023-02-12T03:40:43.257Z,97175.91
2023-02-12T03:43:27.903Z,97178.03
2023-02-12T03:46:04.814Z,97173.41
2023-02-12T03:48:44.409Z,97174.53
2023-02-12T03:51:25.107Z,97162.38
2023-02-12T03:53:55.990Z,97171.69
2023-02-12T03:56:34.788Z,97164.97
2023-02-12T03:59:05.753Z,97167.03
2023-02-12T04:01:37.668Z,97168.81
2023-02-12T04:04:11.303Z,97171.03
2023-02-12T04:06:44.776Z,97174.59
2023-02-12T04:09:16.731Z,97167.63
2023-02-12T04:12:05.395Z,97171.28
2023-02-12T04:14:47.239Z,97180.97
2023-02-12T04:17:29.716Z,97193.94
2023-02-12T04:20:13.396Z,97198.28
2023-02-12T04:22:57.054Z,97192.75
2023-02-12T04:25:42.537Z,97191.88
2023-02-12T04:28:27.808Z,97194.75
2023-02-12T04:31:03.415Z,97203.47
2023-02-12T04:33:43.778Z,97204.44
2023-02-12T04:36:19.978Z,97202.06
2023-02-12T04:38:57.969Z,97200.72
2023-02-12T04:41:29.466Z,97205.38
2023-02-12T04:43:59.337Z,97206.72
2023-02-12T04:46:29.885Z,97206.63
2023-02-12T04:49:01.921Z,97211.19
2023-02-12T04:51:32.566Z,97209.50
2023-02-12T04:54:05.072Z,97213.13
2023-02-12T04:56:34.862Z,97207.75
2023-02-12T04:59:04.677Z,97216.25
2023-02-12T05:01:36.639Z,97217.31
2023-02-12T05:04:07.889Z,97218.09
2023-02-12T05:06:38.356Z,97199.56
2023-02-12T05:09:12.379Z,97205.00
2023-02-12T05:11:42.500Z,97204.31
2023-02-12T05:14:12.387Z,97197.91
2023-02-12T05:16:42.925Z,97205.69
2023-02-12T05:19:13.942Z,97203.53
2023-02-12T05:21:44.038Z,97211.81
2023-02-12T05:24:16.674Z,97219.59
2023-02-12T05:26:46.653Z,97218.41
2023-02-12T05:29:16.701Z,97216.03
2023-02-12T05:31:46.776Z,97221.94
2023-02-12T05:34:17.730Z,97220.84
2023-02-12T05:36:47.579Z,97224.03
2023-02-12T05:39:20.329Z,97227.56
2023-02-12T05:41:50.152Z,97229.44
2023-02-12T05:44:20.320Z,97237.34
2023-02-12T05:46:50.379Z,97233.31
2023-02-12T05:49:20.494Z,97233.75
2023-02-12T05:51:50.388Z,97232.81
2023-02-12T05:54:23.216Z,97231.28
2023-02-12T05:56:53.140Z,97231.59
2023-02-12T05:59:26.231Z,97223.75
2023-02-12T06:01:56.802Z,97221.31
2023-02-12T06:04:29.031Z,97232.63
2023-02-12T06:06:59.727Z,97230.03
2023-02-12T06:09:33.055Z,97232.47
2023-02-12T06:12:03.061Z,97233.03
2023-02-12T06:14:33.030Z,97237.66
2023-02-12T06:17:02.940Z,97244.66
2023-02-12T06:19:33.021Z,97245.13
2023-02-12T06:22:02.969Z,97248.53
2023-02-12T06:24:37.192Z,97250.16
2023-02-12T06:27:07.536Z,97244.84
2023-02-12T06:29:37.425Z,97255.44
2023-02-12T06:32:08.570Z,97264.97
2023-02-12T06:34:38.516Z,97255.63
2023-02-12T06:37:08.650Z,97261.81
2023-02-12T06:39:41.484Z,97264.53
2023-02-12T06:42:11.326Z,97265.03
2023-02-12T06:44:41.208Z,97267.25
2023-02-12T06:47:11.431Z,97271.22
2023-02-12T06:49:41.294Z,97273.19
2023-02-12T06:52:11.255Z,97275.31
2023-02-12T06:54:43.790Z,97274.63
2023-02-12T06:57:13.620Z,97275.78
2023-02-12T06:59:43.559Z,97276.66
2023-02-12T07:02:14.702Z,97274.56
2023-02-12T07:04:44.609Z,97267.81
2023-02-12T07:07:14.760Z,97268.44
2023-02-12T07:09:47.489Z,97270.44
2023-02-12T07:12:17.654Z,97272.22
2023-02-12T07:14:47.591Z,97271.22
2023-02-12T07:17:17.420Z,97277.09
2023-02-12T07:19:47.581Z,97277.72
2023-02-12T07:22:17.389Z,97278.63
2023-02-12T07:24:50.760Z,97280.59
2023-02-12T07:27:20.713Z,97277.97
2023-02-12T07:29:50.619Z,97268.97
2023-02-12T07:32:20.501Z,97272.97
2023-02-12T07:34:50.982Z,97274.38
2023-02-12T07:37:22.877Z,97269.84
2023-02-12T07:39:55.526Z,97265.38
2023-02-12T07:42:25.445Z,97263.25
2023-02-12T07:44:55.566Z,97259.31
2023-02-12T07:47:25.397Z,97265.56
2023-02-12T07:49:55.684Z,97261.75
2023-02-12T07:52:25.695Z,97262.97
2023-02-12T07:54:58.123Z,97253.69
2023-02-12T07:57:28.161Z,97252.34
2023-02-12T07:59:58.071Z,97254.06
2023-02-12T08:02:27.906Z,97254.13
2023-02-12T08:04:59.277Z,97257.97
2023-02-12T08:07:29.352Z,97260.94
2023-02-12T08:10:02.063Z,97259.47
2023-02-12T08:12:31.897Z,97255.81
2023-02-12T08:15:02.101Z,97254.31
2023-02-12T08:17:31.899Z,97258.56
2023-02-12T08:20:02.075Z,97253.50
2023-02-12T08:22:31.906Z,97256.38
2023-02-12T08:25:04.893Z,97255.31
2023-02-12T08:27:34.747Z,97255.13
2023-02-12T08:30:04.936Z,97256.84
2023-02-12T08:32:34.807Z,97257.84
2023-02-12T08:35:04.992Z,97260.47
2023-02-12T08:37:34.769Z,97252.31
2023-02-12T08:40:08.328Z,97256.69
2023-02-12T08:42:38.327Z,97249.84
2023-02-12T08:45:08.714Z,97253.28
2023-02-12T08:47:38.457Z,97250.91
2023-02-12T08:50:10.001Z,97253.38
2023-02-12T08:52:41.353Z,97255.59
2023-02-12T08:55:16.115Z,97248.34
2023-02-12T08:57:45.964Z,97245.72
2023-02-12T09:00:16.978Z,97251.06
2023-02-12T09:02:46.923Z,97242.28
2023-02-12T09:05:17.009Z,97240.94
2023-02-12T09:07:46.826Z,97239.56
2023-02-12T09:10:19.735Z,97246.91
2023-02-12T09:12:49.828Z,97255.41
2023-02-12T09:15:20.027Z,97245.66
2023-02-12T09:17:49.913Z,97245.88
2023-02-12T09:20:19.958Z,97239.97
2023-02-12T09:22:49.969Z,97247.97
2023-02-12T09:25:22.508Z,97251.78
2023-02-12T09:27:52.411Z,97253.13
2023-02-12T09:30:22.754Z,97263.31
2023-02-12T09:32:52.644Z,97261.72
2023-02-12T09:35:22.771Z,97258.59
2023-02-12T09:37:52.896Z,97260.91
2023-02-12T09:40:38.890Z,97254.81
2023-02-12T09:43:20.741Z,97253.16
2023-02-12T09:46:01.073Z,97256.44
2023-02-12T09:48:51.060Z,97258.38
2023-02-12T09:51:21.639Z,97256.59
2023-02-12T09:53:57.918Z,97259.84
2023-02-12T09:56:31.531Z,97263.97
2023-02-12T09:59:03.968Z,97256.75
2023-02-12T10:01:34.015Z,97254.78
2023-02-12T10:04:07.655Z,97256.19
2023-02-12T10:06:49.366Z,97260.81
2023-02-12T10:09:45.500Z,97258.31
2023-02-12T10:12:32.402Z,97260.84
2023-02-12T10:15:30.686Z,97261.00
2023-02-12T10:18:19.252Z,97270.03
2023-02-12T10:21:00.977Z,97271.41
2023-02-12T10:23:56.609Z,97271.06
2023-02-12T10:26:32.441Z,97261.56
2023-02-12T10:29:16.773Z,97262.34
2023-02-12T10:31:52.334Z,97262.75
2023-02-12T10:34:27.180Z,97260.84
2023-02-12T10:37:06.100Z,97255.72
2023-02-12T10:39:42.894Z,97256.56
2023-02-12T10:42:19.360Z,97260.97
2023-02-12T10:44:57.197Z,97247.72
2023-02-12T10:47:28.044Z,97247.66
2023-02-12T10:50:02.097Z,97250.09
2023-02-12T10:52:45.311Z,97248.09
2023-02-12T10:55:31.321Z,97247.97
2023-02-12T10:58:03.971Z,97246.06
2023-02-12T11:00:39.623Z,97240.00
2023-02-12T11:03:24.508Z,97239.31
2023-02-12T11:05:54.897Z,97235.63
2023-02-12T11:08:34.977Z,97238.69
2023-02-12T11:11:15.179Z,97235.59
2023-02-12T11:13:50.117Z,97236.03
2023-02-12T11:16:33.274Z,97233.53
2023-02-12T11:19:05.940Z,97230.84
2023-02-12T11:21:37.185Z,97233.13
2023-02-12T11:24:25.716Z,97229.84
2023-02-12T11:27:03.297Z,97225.44
2023-02-12T11:29:34.130Z,97227.63
2023-02-12T11:32:10.339Z,97228.91
2023-02-12T11:34:40.296Z,97232.13
2023-02-12T11:37:20.408Z,97233.94
2023-02-12T11:39:53.436Z,97226.00
2023-02-12T11:42:27.961Z,97229.16
2023-02-12T11:45:01.729Z,97224.31
2023-02-12T11:47:38.191Z,97225.47
2023-02-12T11:50:18.868Z,97224.47
2023-02-12T11:52:54.949Z,97221.34
2023-02-12T11:55:28.802Z,97224.25
2023-02-12T11:58:07.010Z,97219.31
2023-02-12T12:00:46.048Z,97223.78
2023-02-12T12:03:27.955Z,97224.69
2023-02-12T12:06:05.608Z,97219.16
2023-02-12T12:08:45.217Z,97209.84
2023-02-12T12:11:21.869Z,97211.00
2023-02-12T12:14:00.768Z,97208.63
2023-02-12T12:16:51.333Z,97210.25
2023-02-12T12:19:50.983Z,97207.13
2023-02-12T12:22:36.172Z,97204.34
2023-02-12T12:25:15.942Z,97203.69
2023-02-12T12:28:11.211Z,97204.19
2023-02-12T12:30:52.949Z,97200.28
2023-02-12T12:33:35.119Z,97200.03
2023-02-12T12:36:47.146Z,97197.13
2023-02-12T12:39:29.078Z,97196.78
2023-02-12T12:42:40.959Z,97190.63
2023-02-12T12:45:33.324Z,97185.22
2023-02-12T12:48:20.676Z,97186.31
2023-02-12T12:51:17.681Z,97194.22
2023-02-12T12:54:04.810Z,97186.53
2023-02-12T12:56:55.768Z,97178.19
2023-02-12T12:59:53.070Z,97184.41
2023-02-12T13:03:02.567Z,97171.81
2023-02-12T13:06:01.801Z,97176.72
2023-02-12T13:08:47.790Z,97169.69
2023-02-12T13:11:39.176Z,97168.84
2023-02-12T13:14:30.836Z,97177.53
2023-02-12T13:17:13.448Z,97172.47
2023-02-12T13:19:58.536Z,97171.50
2023-02-12T13:22:38.563Z,97171.00
2023-02-12T13:25:24.451Z,97162.03
2023-02-12T13:28:01.177Z,97161.53
2023-02-12T13:30:39.875Z,97158.41
2023-02-12T13:33:17.821Z,97165.28
2023-02-12T13:35:54.604Z,97167.25
2023-02-12T13:38:31.649Z,97167.41
2023-02-12T13:41:06.502Z,97172.47
2023-02-12T13:43:52.367Z,97163.81
2023-02-12T13:46:34.903Z,97168.19
2023-02-12T13:49:20.730Z,97165.44
2023-02-12T13:51:57.388Z,97166.75
2023-02-12T13:54:49.818Z,97168.38
2023-02-12T13:57:23.681Z,97166.91
2023-02-12T13:59:58.533Z,97157.84
2023-02-12T14:02:47.846Z,97155.94
2023-02-12T14:05:28.277Z,97162.19
2023-02-12T14:08:02.174Z,97159.38
2023-02-12T14:10:37.071Z,97171.28
2023-02-12T14:13:19.427Z,97174.44
2023-02-12T14:15:56.472Z,97165.94
2023-02-12T14:18:33.766Z,97168.88
2023-02-12T14:21:39.879Z,97170.16
2023-02-12T14:24:49.877Z,97169.81
2023-02-12T14:27:36.560Z,97158.66
2023-02-12T14:30:35.091Z,97156.56
2023-02-12T14:33:29.534Z,97161.63
2023-02-12T14:36:21.486Z,97165.84
2023-02-12T14:39:03.142Z,97162.91
2023-02-12T14:41:45.869Z,97158.09
2023-02-12T14:44:47.496Z,97161.66
2023-02-12T14:47:54.405Z,97163.28
2023-02-12T14:50:45.825Z,97158.25
2023-02-12T14:53:30.718Z,97157.00
2023-02-12T14:56:02.952Z,97162.34
2023-02-12T14:58:35.384Z,97167.91
2023-02-12T15:01:08.717Z,97157.91
2023-02-12T15:03:45.996Z,97159.81
2023-02-12T15:06:24.233Z,97159.88
2023-02-12T15:09:02.889Z,97152.69
2023-02-12T15:11:46.746Z,97151.41
2023-02-12T15:14:23.375Z,97144.03
2023-02-12T15:17:01.008Z,97141.59
2023-02-12T15:19:42.347Z,97141.41
2023-02-12T15:22:27.600Z,97137.75
2023-02-12T15:25:16.861Z,97137.84
2023-02-12T15:27:49.495Z,97140.63
2023-02-12T15:30:26.297Z,97142.03
2023-02-12T15:33:00.430Z,97145.09
2023-02-12T15:35:33.923Z,97140.03
2023-02-12T15:38:11.133Z,97146.63
2023-02-12T15:40:57.014Z,97132.81
2023-02-12T15:43:35.193Z,97137.06
2023-02-12T15:46:09.048Z,97138.31
2023-02-12T15:48:40.762Z,97136.31
2023-02-12T15:51:20.022Z,97134.97
2023-02-12T15:53:53.449Z,97140.84
2023-02-12T15:56:27.510Z,97138.91
2023-02-12T15:59:02.467Z,97146.47
2023-02-12T16:01:36.589Z,97139.09
2023-02-12T16:04:09.564Z,97135.50
2023-02-12T16:06:42.086Z,97142.66
2023-02-12T16:09:23.686Z,97133.06
2023-02-12T16:11:54.010Z,97143.63
2023-02-12T16:14:28.362Z,97144.53
2023-02-12T16:17:02.196Z,97141.19
2023-02-12T16:19:37.132Z,97134.47
2023-02-12T16:22:14.676Z,97138.25
2023-02-12T16:24:55.802Z,97137.72
2023-02-12T16:27:29.319Z,97136.53
2023-02-12T16:30:02.735Z,97141.78
2023-02-12T16:32:37.943Z,97138.78
2023-02-12T16:35:27.582Z,97141.44
2023-02-12T16:38:03.170Z,97139.28
2023-02-12T16:40:40.503Z,97143.53
2023-02-12T16:43:28.961Z,97144.00
2023-02-12T16:46:08.393Z,97149.34
2023-02-12T16:48:44.631Z,97151.00
2023-02-12T16:51:26.185Z,97158.78
2023-02-12T16:53:57.797Z,97161.00
2023-02-12T16:56:34.768Z,97161.66
2023-02-12T16:59:06.428Z,97162.38
2023-02-12T17:01:38.276Z,97169.66
2023-02-12T17:04:12.380Z,97166.50
2023-02-12T17:06:43.946Z,97170.63
2023-02-12T17:09:15.486Z,97169.81
2023-02-12T17:11:48.336Z,97163.53
2023-02-12T17:14:21.022Z,97169.28
2023-02-12T17:16:52.441Z,97171.47
2023-02-12T17:19:24.513Z,97168.88
2023-02-12T17:21:54.799Z,97170.22
2023-02-12T17:24:28.195Z,97172.16
2023-02-12T17:27:03.096Z,97169.69
2023-02-12T17:29:33.429Z,97175.44
2023-02-12T17:32:03.690Z,97169.97
2023-02-12T17:34:46.640Z,97175.88
2023-02-12T17:37:19.019Z,97180.13
2023-02-12T17:39:49.726Z,97170.53
2023-02-12T17:42:22.171Z,97167.13
2023-02-12T17:44:52.519Z,97177.25
2023-02-12T17:47:22.483Z,97181.47
2023-02-12T17:49:52.589Z,97173.00
2023-02-12T17:52:22.380Z,97173.78
2023-02-12T17:54:52.615Z,97175.69
2023-02-12T17:57:25.101Z,97177.78
2023-02-12T17:59:55.020Z,97178.03
2023-02-12T18:02:24.832Z,97176.38
2023-02-12T18:04:54.901Z,97180.47
2023-02-12T18:07:24.960Z,97175.72
2023-02-12T18:09:55.213Z,97177.06
2023-02-12T18:12:28.299Z,97176.09
2023-02-12T18:15:00.341Z,97164.72
2023-02-12T18:17:32.945Z,97176.19
2023-02-12T18:20:03.347Z,97181.13
2023-02-12T18:22:35.545Z,97177.59
2023-02-12T18:25:05.524Z,97177.31
2023-02-12T18:27:39.848Z,97177.25
2023-02-12T18:30:12.576Z,97181.75
2023-02-12T18:32:43.527Z,97170.72
2023-02-12T18:35:14.684Z,97162.78
2023-02-12T18:37:47.619Z,97171.91
2023-02-12T18:40:19.440Z,97177.47
2023-02-12T18:42:52.087Z,97178.84
2023-02-12T18:45:22.055Z,97171.91
2023-02-12T18:47:52.222Z,97175.56
2023-02-12T18:50:22.194Z,97170.50
2023-02-12T18:52:52.336Z,97170.06
2023-02-12T18:55:22.169Z,97176.50
2023-02-12T18:57:55.829Z,97176.47
2023-02-12T19:00:27.459Z,97171.00
2023-02-12T19:02:57.417Z,97177.38
2023-02-12T19:05:27.792Z,97174.13
2023-02-12T19:07:58.456Z,97165.25
2023-02-12T19:10:29.407Z,97159.59
2023-02-12T19:13:01.936Z,97161.63
2023-02-12T19:15:32.199Z,97158.13
2023-02-12T19:18:03.145Z,97166.50
2023-02-12T19:20:34.092Z,97154.88
2023-02-12T19:23:04.266Z,97151.84
2023-02-12T19:25:34.368Z,97159.88
2023-02-12T19:28:07.324Z,97156.44
2023-02-12T19:30:39.048Z,97155.22
2023-02-12T19:33:09.778Z,97157.22
2023-02-12T19:35:39.900Z,97159.06
2023-02-12T19:38:10.006Z,97163.19
2023-02-12T19:40:39.852Z,97160.81
2023-02-12T19:43:12.542Z,97162.53
2023-02-12T19:45:42.924Z,97158.09
2023-02-12T19:48:12.811Z,97155.63
2023-02-12T19:50:48.305Z,97161.72
2023-02-12T19:53:18.151Z,97161.72
2023-02-12T19:55:48.339Z,97157.72
2023-02-12T19:58:20.812Z,97160.03
2023-02-12T20:00:51.771Z,97158.31
2023-02-12T20:03:23.213Z,97148.75
2023-02-12T20:05:55.446Z,97150.97
2023-02-12T20:08:25.329Z,97156.41
2023-02-12T20:10:55.507Z,97155.81
2023-02-12T20:13:28.410Z,97157.72
2023-02-12T20:15:58.262Z,97160.72
2023-02-12T20:18:28.493Z,97166.09
2023-02-12T20:20:58.485Z,97164.34
2023-02-12T20:23:28.786Z,97166.66
2023-02-12T20:25:58.720Z,97160.94
2023-02-12T20:28:31.750Z,97163.75
2023-02-12T20:31:01.810Z,97168.09
2023-02-12T20:33:32.117Z,97162.44
2023-02-12T20:36:04.181Z,97164.47
2023-02-12T20:38:34.907Z,97172.84
2023-02-12T20:41:06.343Z,97172.13
2023-02-12T20:43:39.746Z,97169.53
2023-02-12T20:46:12.353Z,97170.50
2023-02-12T20:48:45.858Z,97172.84
2023-02-12T20:51:18.559Z,97169.22
2023-02-12T20:53:49.838Z,97172.59
2023-02-12T20:56:22.570Z,97171.28
2023-02-12T20:58:55.687Z,97174.94
2023-02-12T21:01:29.330Z,97181.97
2023-02-12T21:04:00.289Z,97178.56
2023-02-12T21:06:30.186Z,97187.84
2023-02-12T21:09:00.345Z,97185.72
2023-02-12T21:11:32.010Z,97186.13
2023-02-12T21:16:57.404Z,97184.69
2023-02-12T21:19:29.107Z,97179.13
2023-02-12T21:21:59.352Z,97174.16
2023-02-12T21:24:29.352Z,97189.25
2023-02-12T21:26:59.570Z,97177.81
2023-02-12T21:29:33.249Z,97181.00
2023-02-12T21:32:03.791Z,97174.16
2023-02-12T21:34:34.064Z,97183.53
2023-02-12T21:37:04.513Z,97187.56
2023-02-12T21:39:34.559Z,97193.84
2023-02-12T21:42:13.754Z,97185.94
2023-02-12T21:44:46.468Z,97187.59
2023-02-12T21:47:16.352Z,97184.44
2023-02-12T21:49:52.014Z,97186.38
2023-02-12T21:52:22.285Z,97192.09
2023-02-12T21:54:57.431Z,97192.69
2023-02-12T21:57:27.239Z,97193.31
2023-02-12T21:59:59.723Z,97199.06
2023-02-12T22:02:29.897Z,97191.53
2023-02-12T22:04:59.972Z,97195.75
2023-02-12T22:07:30.830Z,97191.06
2023-02-12T22:10:00.990Z,97184.13
2023-02-12T22:12:32.513Z,97187.56
2023-02-12T22:15:07.487Z,97194.59
2023-02-12T22:17:39.454Z,97195.06
2023-02-12T22:20:11.378Z,97199.66
2023-02-12T22:22:41.949Z,97205.06
2023-02-12T22:25:12.250Z,97197.66
2023-02-12T22:27:42.474Z,97205.06
2023-02-12T22:30:16.975Z,97204.25
2023-02-12T22:32:47.033Z,97207.66
2023-02-12T22:35:17.175Z,97206.84
2023-02-12T22:37:47.041Z,97202.59
2023-02-12T22:40:19.382Z,97204.00
2023-02-12T22:42:49.343Z,97196.16
2023-02-12T22:45:22.189Z,97200.84
2023-02-12T22:47:52.281Z,97203.44
2023-02-12T22:50:22.252Z,97205.06
2023-02-12T22:52:52.110Z,97201.91
2023-02-12T22:55:22.678Z,97201.19
2023-02-12T22:57:53.733Z,97212.22
2023-02-12T23:00:26.853Z,97204.94
2023-02-12T23:02:58.086Z,97203.53
2023-02-12T23:05:28.446Z,97203.53
2023-02-12T23:07:59.446Z,97201.53
2023-02-12T23:10:29.641Z,97194.97
2023-02-12T23:12:59.666Z,97196.59
2023-02-12T23:15:32.816Z,97201.66
2023-02-12T23:18:02.722Z,97197.78
2023-02-12T23:20:32.658Z,97198.59
2023-02-12T23:23:02.830Z,97202.59
2023-02-12T23:25:32.939Z,97198.47
2023-02-12T23:28:02.964Z,97196.38
2023-02-12T23:30:35.646Z,97194.59
2023-02-12T23:33:05.993Z,97190.03
2023-02-12T23:35:35.875Z,97199.78
2023-02-12T23:38:06.530Z,97187.41
2023-02-12T23:40:37.236Z,97195.31
2023-02-12T23:43:07.798Z,97188.41
2023-02-12T23:45:40.825Z,97187.44
2023-02-12T23:48:13.914Z,97188.50
2023-02-12T23:50:44.420Z,97191.56
2023-02-12T23:53:14.349Z,97186.13
2023-02-12T23:55:44.825Z,97181.44
2023-02-12T23:58:14.797Z,97175.56
